sensor_id;sensor_type;location;lat;lon;timestamp;temperature;humidity
782;DHT22;374;52.568;13.402;2023-06-05T00:00:47;19.00;48.60
782;DHT22;374;52.568;13.402;2023-06-05T00:03:12;19.00;48.50
782;DHT22;374;52.568;13.402;2023-06-05T00:05:37;19.00;49.10
782;DHT22;374;52.568;13.402;2023-06-05T00:08:03;19.00;48.70
782;DHT22;374;52.568;13.402;2023-06-05T00:10:28;18.90;48.90
782;DHT22;374;52.568;13.402;2023-06-05T00:12:54;18.90;49.00
782;DHT22;374;52.568;13.402;2023-06-05T00:15:20;18.90;49.00
782;DHT22;374;52.568;13.402;2023-06-05T00:17:45;18.90;49.30
782;DHT22;374;52.568;13.402;2023-06-05T00:20:12;18.90;49.30
782;DHT22;374;52.568;13.402;2023-06-05T00:22:37;18.80;49.10
782;DHT22;374;52.568;13.402;2023-06-05T00:25:04;18.80;48.90
782;DHT22;374;52.568;13.402;2023-06-05T00:27:30;18.80;49.00
782;DHT22;374;52.568;13.402;2023-06-05T00:29:56;18.80;49.00
782;DHT22;374;52.568;13.402;2023-06-05T00:32:22;18.70;48.90
782;DHT22;374;52.568;13.402;2023-06-05T00:34:47;18.70;48.70
782;DHT22;374;52.568;13.402;2023-06-05T00:37:15;18.70;48.80
782;DHT22;374;52.568;13.402;2023-06-05T00:39:41;18.60;48.70
782;DHT22;374;52.568;13.402;2023-06-05T00:42:07;18.60;48.90
782;DHT22;374;52.568;13.402;2023-06-05T00:44:33;18.50;48.80
782;DHT22;374;52.568;13.402;2023-06-05T00:46:59;18.50;48.90
782;DHT22;374;52.568;13.402;2023-06-05T00:49:25;18.50;48.90
782;DHT22;374;52.568;13.402;2023-06-05T00:51:50;18.50;49.10
782;DHT22;374;52.568;13.402;2023-06-05T00:54:16;18.40;49.10
782;DHT22;374;52.568;13.402;2023-06-05T00:56:43;18.40;49.20
782;DHT22;374;52.568;13.402;2023-06-05T00:59:08;18.40;49.20
782;DHT22;374;52.568;13.402;2023-06-05T01:01:34;18.30;49.20
782;DHT22;374;52.568;13.402;2023-06-05T01:04:00;18.30;49.20
782;DHT22;374;52.568;13.402;2023-06-05T01:06:30;18.30;49.20
782;DHT22;374;52.568;13.402;2023-06-05T01:09:00;18.30;49.30
782;DHT22;374;52.568;13.402;2023-06-05T01:14:21;18.20;49.40
782;DHT22;374;52.568;13.402;2023-06-05T01:16:53;18.20;49.50
782;DHT22;374;52.568;13.402;2023-06-05T01:19:20;18.10;49.50
782;DHT22;374;52.568;13.402;2023-06-05T01:21:47;18.10;49.60
782;DHT22;374;52.568;13.402;2023-06-05T01:24:13;18.10;49.80
782;DHT22;374;52.568;13.402;2023-06-05T01:29:24;18.10;49.90
782;DHT22;374;52.568;13.402;2023-06-05T01:31:55;18.00;49.90
782;DHT22;374;52.568;13.402;2023-06-05T01:34:25;18.10;50.10
782;DHT22;374;52.568;13.402;2023-06-05T01:36:52;18.10;50.10
782;DHT22;374;52.568;13.402;2023-06-05T01:39:18;18.10;50.50
782;DHT22;374;52.568;13.402;2023-06-05T01:41:44;18.00;50.60
782;DHT22;374;52.568;13.402;2023-06-05T01:44:12;18.00;50.60
782;DHT22;374;52.568;13.402;2023-06-05T01:46:41;18.00;50.40
782;DHT22;374;52.568;13.402;2023-06-05T01:49:07;17.90;50.30
782;DHT22;374;52.568;13.402;2023-06-05T01:51:33;17.90;50.50
782;DHT22;374;52.568;13.402;2023-06-05T01:54:00;17.90;50.50
782;DHT22;374;52.568;13.402;2023-06-05T01:56:25;17.90;50.60
782;DHT22;374;52.568;13.402;2023-06-05T01:58:51;17.90;50.90
782;DHT22;374;52.568;13.402;2023-06-05T02:01:18;17.90;51.00
782;DHT22;374;52.568;13.402;2023-06-05T02:03:48;17.90;51.00
782;DHT22;374;52.568;13.402;2023-06-05T02:06:17;17.90;51.00
782;DHT22;374;52.568;13.402;2023-06-05T02:08:43;17.80;51.10
782;DHT22;374;52.568;13.402;2023-06-05T02:11:09;17.80;51.20
782;DHT22;374;52.568;13.402;2023-06-05T02:13:38;17.70;51.30
782;DHT22;374;52.568;13.402;2023-06-05T02:16:05;17.70;51.50
782;DHT22;374;52.568;13.402;2023-06-05T02:18:33;17.70;51.70
782;DHT22;374;52.568;13.402;2023-06-05T02:21:02;17.60;51.70
782;DHT22;374;52.568;13.402;2023-06-05T02:23:28;17.60;51.90
782;DHT22;374;52.568;13.402;2023-06-05T02:25:54;17.70;52.00
782;DHT22;374;52.568;13.402;2023-06-05T02:28:20;17.60;51.50
782;DHT22;374;52.568;13.402;2023-06-05T02:30:45;17.60;51.10
782;DHT22;374;52.568;13.402;2023-06-05T02:33:13;17.60;51.60
782;DHT22;374;52.568;13.402;2023-06-05T02:35:39;17.60;51.20
782;DHT22;374;52.568;13.402;2023-06-05T02:38:07;17.60;51.50
782;DHT22;374;52.568;13.402;2023-06-05T02:40:32;17.50;51.50
782;DHT22;374;52.568;13.402;2023-06-05T02:42:58;17.50;51.90
782;DHT22;374;52.568;13.402;2023-06-05T02:45:23;17.50;52.10
782;DHT22;374;52.568;13.402;2023-06-05T02:47:49;17.50;52.30
782;DHT22;374;52.568;13.402;2023-06-05T02:50:14;17.40;52.30
782;DHT22;374;52.568;13.402;2023-06-05T02:52:43;17.40;52.40
782;DHT22;374;52.568;13.402;2023-06-05T02:55:08;17.30;52.80
782;DHT22;374;52.568;13.402;2023-06-05T02:57:34;17.40;52.70
782;DHT22;374;52.568;13.402;2023-06-05T03:00:08;17.30;52.40
782;DHT22;374;52.568;13.402;2023-06-05T03:02:34;17.30;52.40
782;DHT22;374;52.568;13.402;2023-06-05T03:05:04;17.30;52.40
782;DHT22;374;52.568;13.402;2023-06-05T03:07:30;17.40;52.40
782;DHT22;374;52.568;13.402;2023-06-05T03:09:55;17.40;52.50
782;DHT22;374;52.568;13.402;2023-06-05T03:12:21;17.40;52.40
782;DHT22;374;52.568;13.402;2023-06-05T03:14:46;17.30;52.60
782;DHT22;374;52.568;13.402;2023-06-05T03:17:15;17.30;52.60
782;DHT22;374;52.568;13.402;2023-06-05T03:19:40;17.30;52.40
782;DHT22;374;52.568;13.402;2023-06-05T03:22:07;17.30;52.00
782;DHT22;374;52.568;13.402;2023-06-05T03:24:32;17.20;52.00
782;DHT22;374;52.568;13.402;2023-06-05T03:26:58;17.20;51.80
782;DHT22;374;52.568;13.402;2023-06-05T03:29:23;17.20;51.90
782;DHT22;374;52.568;13.402;2023-06-05T03:31:49;17.20;51.90
782;DHT22;374;52.568;13.402;2023-06-05T03:34:14;17.20;51.80
782;DHT22;374;52.568;13.402;2023-06-05T03:36:39;17.10;51.70
782;DHT22;374;52.568;13.402;2023-06-05T03:39:06;17.10;51.70
782;DHT22;374;52.568;13.402;2023-06-05T03:41:32;17.10;51.90
782;DHT22;374;52.568;13.402;2023-06-05T03:43:57;17.10;51.90
782;DHT22;374;52.568;13.402;2023-06-05T03:46:23;17.10;51.80
782;DHT22;374;52.568;13.402;2023-06-05T03:48:49;17.10;51.80
782;DHT22;374;52.568;13.402;2023-06-05T03:51:15;17.00;51.90
782;DHT22;374;52.568;13.402;2023-06-05T03:53:43;17.10;52.00
782;DHT22;374;52.568;13.402;2023-06-05T03:56:10;17.10;52.00
782;DHT22;374;52.568;13.402;2023-06-05T03:58:35;17.00;51.80
782;DHT22;374;52.568;13.402;2023-06-05T04:01:01;17.00;51.80
782;DHT22;374;52.568;13.402;2023-06-05T04:03:26;17.00;51.90
782;DHT22;374;52.568;13.402;2023-06-05T04:05:52;17.00;51.90
782;DHT22;374;52.568;13.402;2023-06-05T04:08:18;17.00;52.00
782;DHT22;374;52.568;13.402;2023-06-05T04:10:43;17.00;51.90
782;DHT22;374;52.568;13.402;2023-06-05T04:13:09;17.00;51.80
782;DHT22;374;52.568;13.402;2023-06-05T04:15:34;17.00;51.80
782;DHT22;374;52.568;13.402;2023-06-05T04:18:00;17.00;51.80
782;DHT22;374;52.568;13.402;2023-06-05T04:20:26;16.90;51.70
782;DHT22;374;52.568;13.402;2023-06-05T04:22:51;16.90;51.70
782;DHT22;374;52.568;13.402;2023-06-05T04:25:17;16.90;51.80
782;DHT22;374;52.568;13.402;2023-06-05T04:27:44;16.90;51.80
782;DHT22;374;52.568;13.402;2023-06-05T04:30:12;17.00;51.90
782;DHT22;374;52.568;13.402;2023-06-05T04:32:38;17.00;51.90
782;DHT22;374;52.568;13.402;2023-06-05T04:35:05;17.00;51.80
782;DHT22;374;52.568;13.402;2023-06-05T04:37:32;17.00;52.00
782;DHT22;374;52.568;13.402;2023-06-05T04:39:57;16.90;52.30
782;DHT22;374;52.568;13.402;2023-06-05T04:42:24;16.90;52.30
782;DHT22;374;52.568;13.402;2023-06-05T04:44:57;16.90;52.50
782;DHT22;374;52.568;13.402;2023-06-05T04:47:22;16.90;52.60
782;DHT22;374;52.568;13.402;2023-06-05T04:49:48;16.90;52.60
782;DHT22;374;52.568;13.402;2023-06-05T04:52:17;17.00;52.70
782;DHT22;374;52.568;13.402;2023-06-05T04:54:42;16.90;52.60
782;DHT22;374;52.568;13.402;2023-06-05T04:57:10;16.90;52.70
782;DHT22;374;52.568;13.402;2023-06-05T04:59:36;16.90;52.80
782;DHT22;374;52.568;13.402;2023-06-05T05:02:02;17.00;52.90
782;DHT22;374;52.568;13.402;2023-06-05T05:04:28;17.00;52.90
782;DHT22;374;52.568;13.402;2023-06-05T05:06:54;17.00;53.00
782;DHT22;374;52.568;13.402;2023-06-05T05:09:20;17.00;53.00
782;DHT22;374;52.568;13.402;2023-06-05T05:11:45;17.00;53.00
782;DHT22;374;52.568;13.402;2023-06-05T05:14:11;17.00;53.00
782;DHT22;374;52.568;13.402;2023-06-05T05:16:36;17.00;53.20
782;DHT22;374;52.568;13.402;2023-06-05T05:19:02;17.00;53.10
782;DHT22;374;52.568;13.402;2023-06-05T05:21:27;17.00;53.20
782;DHT22;374;52.568;13.402;2023-06-05T05:23:53;17.10;53.50
782;DHT22;374;52.568;13.402;2023-06-05T05:26:18;17.10;53.50
782;DHT22;374;52.568;13.402;2023-06-05T05:28:44;17.10;53.50
782;DHT22;374;52.568;13.402;2023-06-05T05:31:09;17.10;53.70
782;DHT22;374;52.568;13.402;2023-06-05T05:33:35;17.10;53.80
782;DHT22;374;52.568;13.402;2023-06-05T05:36:01;17.10;53.90
782;DHT22;374;52.568;13.402;2023-06-05T05:38:26;17.10;53.90
782;DHT22;374;52.568;13.402;2023-06-05T05:40:52;17.10;53.80
782;DHT22;374;52.568;13.402;2023-06-05T05:43:17;17.10;54.00
782;DHT22;374;52.568;13.402;2023-06-05T05:45:42;17.20;54.20
782;DHT22;374;52.568;13.402;2023-06-05T05:48:09;17.20;54.80
782;DHT22;374;52.568;13.402;2023-06-05T05:50:35;17.20;54.30
782;DHT22;374;52.568;13.402;2023-06-05T05:53:00;17.20;54.40
782;DHT22;374;52.568;13.402;2023-06-05T05:55:26;17.20;54.60
782;DHT22;374;52.568;13.402;2023-06-05T05:57:51;17.30;54.30
782;DHT22;374;52.568;13.402;2023-06-05T06:00:17;17.30;54.70
782;DHT22;374;52.568;13.402;2023-06-05T06:02:43;17.30;54.80
782;DHT22;374;52.568;13.402;2023-06-05T06:05:08;17.30;54.70
782;DHT22;374;52.568;13.402;2023-06-05T06:07:35;17.30;54.80
782;DHT22;374;52.568;13.402;2023-06-05T06:10:01;17.30;54.80
782;DHT22;374;52.568;13.402;2023-06-05T06:12:27;17.30;54.80
782;DHT22;374;52.568;13.402;2023-06-05T06:14:54;17.40;54.90
782;DHT22;374;52.568;13.402;2023-06-05T06:17:20;17.40;55.20
782;DHT22;374;52.568;13.402;2023-06-05T06:19:45;17.40;55.10
782;DHT22;374;52.568;13.402;2023-06-05T06:22:14;17.40;55.10
782;DHT22;374;52.568;13.402;2023-06-05T06:24:40;17.40;54.80
782;DHT22;374;52.568;13.402;2023-06-05T06:27:06;17.50;55.00
782;DHT22;374;52.568;13.402;2023-06-05T06:29:32;17.40;55.20
782;DHT22;374;52.568;13.402;2023-06-05T06:31:57;17.50;55.30
782;DHT22;374;52.568;13.402;2023-06-05T06:34:23;17.50;55.40
782;DHT22;374;52.568;13.402;2023-06-05T06:36:50;17.50;55.50
782;DHT22;374;52.568;13.402;2023-06-05T06:39:16;17.60;56.10
782;DHT22;374;52.568;13.402;2023-06-05T06:41:43;17.60;55.90
782;DHT22;374;52.568;13.402;2023-06-05T06:44:09;17.60;55.90
782;DHT22;374;52.568;13.402;2023-06-05T06:46:35;17.60;56.00
782;DHT22;374;52.568;13.402;2023-06-05T06:49:01;17.70;55.70
782;DHT22;374;52.568;13.402;2023-06-05T06:51:26;17.70;55.90
782;DHT22;374;52.568;13.402;2023-06-05T06:53:52;17.70;55.60
782;DHT22;374;52.568;13.402;2023-06-05T06:56:17;17.70;55.80
782;DHT22;374;52.568;13.402;2023-06-05T06:58:45;17.70;55.80
782;DHT22;374;52.568;13.402;2023-06-05T07:01:11;17.80;55.70
782;DHT22;374;52.568;13.402;2023-06-05T07:03:38;17.80;55.40
782;DHT22;374;52.568;13.402;2023-06-05T07:06:05;17.80;55.50
782;DHT22;374;52.568;13.402;2023-06-05T07:08:30;17.90;55.70
782;DHT22;374;52.568;13.402;2023-06-05T07:10:56;17.90;55.90
782;DHT22;374;52.568;13.402;2023-06-05T07:13:22;18.00;55.70
782;DHT22;374;52.568;13.402;2023-06-05T07:15:48;17.90;55.50
782;DHT22;374;52.568;13.402;2023-06-05T07:18:16;18.00;55.90
782;DHT22;374;52.568;13.402;2023-06-05T07:20:42;18.00;55.40
782;DHT22;374;52.568;13.402;2023-06-05T07:23:07;18.10;55.90
782;DHT22;374;52.568;13.402;2023-06-05T07:25:33;18.10;55.10
782;DHT22;374;52.568;13.402;2023-06-05T07:27:58;18.20;55.60
782;DHT22;374;52.568;13.402;2023-06-05T07:30:28;18.20;55.10
782;DHT22;374;52.568;13.402;2023-06-05T07:32:54;18.20;54.80
782;DHT22;374;52.568;13.402;2023-06-05T07:35:20;18.30;55.00
782;DHT22;374;52.568;13.402;2023-06-05T07:37:46;18.30;55.30
782;DHT22;374;52.568;13.402;2023-06-05T07:40:12;18.40;55.10
782;DHT22;374;52.568;13.402;2023-06-05T07:42:37;18.50;55.40
782;DHT22;374;52.568;13.402;2023-06-05T07:45:03;18.50;55.00
782;DHT22;374;52.568;13.402;2023-06-05T07:47:29;18.50;54.60
782;DHT22;374;52.568;13.402;2023-06-05T07:50:02;18.60;54.00
782;DHT22;374;52.568;13.402;2023-06-05T07:52:32;18.60;54.10
782;DHT22;374;52.568;13.402;2023-06-05T07:54:58;18.70;54.30
782;DHT22;374;52.568;13.402;2023-06-05T07:57:23;18.70;53.90
782;DHT22;374;52.568;13.402;2023-06-05T07:59:50;18.70;53.80
782;DHT22;374;52.568;13.402;2023-06-05T08:02:19;18.80;54.20
782;DHT22;374;52.568;13.402;2023-06-05T08:04:45;18.80;53.20
782;DHT22;374;52.568;13.402;2023-06-05T08:07:11;18.90;52.40
782;DHT22;374;52.568;13.402;2023-06-05T08:09:37;18.90;53.00
782;DHT22;374;52.568;13.402;2023-06-05T08:12:03;19.00;53.30
782;DHT22;374;52.568;13.402;2023-06-05T08:14:29;19.10;52.90
782;DHT22;374;52.568;13.402;2023-06-05T08:16:55;19.10;53.40
782;DHT22;374;52.568;13.402;2023-06-05T08:19:21;19.20;53.70
782;DHT22;374;52.568;13.402;2023-06-05T08:21:50;19.20;52.70
782;DHT22;374;52.568;13.402;2023-06-05T08:24:15;19.30;52.50
782;DHT22;374;52.568;13.402;2023-06-05T08:26:41;19.40;53.10
782;DHT22;374;52.568;13.402;2023-06-05T08:29:06;19.40;53.50
782;DHT22;374;52.568;13.402;2023-06-05T08:31:32;19.50;51.40
782;DHT22;374;52.568;13.402;2023-06-05T08:33:59;19.60;52.30
782;DHT22;374;52.568;13.402;2023-06-05T08:36:25;19.60;51.40
782;DHT22;374;52.568;13.402;2023-06-05T08:38:50;19.70;52.70
782;DHT22;374;52.568;13.402;2023-06-05T08:41:16;19.70;51.50
782;DHT22;374;52.568;13.402;2023-06-05T08:43:42;19.80;50.50
782;DHT22;374;52.568;13.402;2023-06-05T08:46:10;19.80;50.70
782;DHT22;374;52.568;13.402;2023-06-05T08:48:42;19.90;51.00
782;DHT22;374;52.568;13.402;2023-06-05T08:51:10;20.00;49.10
782;DHT22;374;52.568;13.402;2023-06-05T08:53:38;20.10;48.80
782;DHT22;374;52.568;13.402;2023-06-05T08:56:06;20.10;48.80
782;DHT22;374;52.568;13.402;2023-06-05T08:58:32;20.10;48.60
782;DHT22;374;52.568;13.402;2023-06-05T09:00:58;20.20;49.10
782;DHT22;374;52.568;13.402;2023-06-05T09:03:24;20.30;49.60
782;DHT22;374;52.568;13.402;2023-06-05T09:05:52;20.30;49.70
782;DHT22;374;52.568;13.402;2023-06-05T09:08:22;20.40;48.50
782;DHT22;374;52.568;13.402;2023-06-05T09:10:52;20.40;48.20
782;DHT22;374;52.568;13.402;2023-06-05T09:13:18;20.50;47.20
782;DHT22;374;52.568;13.402;2023-06-05T09:15:50;20.50;48.30
782;DHT22;374;52.568;13.402;2023-06-05T09:18:15;20.70;48.20
782;DHT22;374;52.568;13.402;2023-06-05T09:20:42;20.70;47.20
782;DHT22;374;52.568;13.402;2023-06-05T09:23:25;20.90;48.60
782;DHT22;374;52.568;13.402;2023-06-05T09:25:53;21.00;47.80
782;DHT22;374;52.568;13.402;2023-06-05T09:28:20;21.00;47.20
782;DHT22;374;52.568;13.402;2023-06-05T09:31:00;21.00;46.20
782;DHT22;374;52.568;13.402;2023-06-05T09:33:33;21.10;45.70
782;DHT22;374;52.568;13.402;2023-06-05T09:36:09;21.10;47.40
782;DHT22;374;52.568;13.402;2023-06-05T09:38:36;21.10;46.50
782;DHT22;374;52.568;13.402;2023-06-05T09:41:06;21.20;46.40
782;DHT22;374;52.568;13.402;2023-06-05T09:43:32;21.20;46.10
782;DHT22;374;52.568;13.402;2023-06-05T09:45:58;21.30;45.50
782;DHT22;374;52.568;13.402;2023-06-05T09:48:23;21.30;46.70
782;DHT22;374;52.568;13.402;2023-06-05T09:50:51;21.30;46.70
782;DHT22;374;52.568;13.402;2023-06-05T09:53:17;21.40;45.30
782;DHT22;374;52.568;13.402;2023-06-05T09:55:45;21.50;44.60
782;DHT22;374;52.568;13.402;2023-06-05T09:58:12;21.50;45.90
782;DHT22;374;52.568;13.402;2023-06-05T10:00:40;21.60;48.40
782;DHT22;374;52.568;13.402;2023-06-05T10:03:08;21.60;47.50
782;DHT22;374;52.568;13.402;2023-06-05T10:05:40;21.60;45.80
782;DHT22;374;52.568;13.402;2023-06-05T10:08:06;21.70;45.00
782;DHT22;374;52.568;13.402;2023-06-05T10:10:32;21.80;43.90
782;DHT22;374;52.568;13.402;2023-06-05T10:13:00;21.90;43.30
782;DHT22;374;52.568;13.402;2023-06-05T10:15:27;21.90;43.20
782;DHT22;374;52.568;13.402;2023-06-05T10:17:53;21.90;43.80
782;DHT22;374;52.568;13.402;2023-06-05T10:20:21;21.80;43.50
782;DHT22;374;52.568;13.402;2023-06-05T10:22:46;21.90;44.90
782;DHT22;374;52.568;13.402;2023-06-05T10:25:14;21.90;44.80
782;DHT22;374;52.568;13.402;2023-06-05T10:27:53;21.80;43.90
782;DHT22;374;52.568;13.402;2023-06-05T10:33:11;21.90;43.90
782;DHT22;374;52.568;13.402;2023-06-05T10:35:50;21.90;43.70
782;DHT22;374;52.568;13.402;2023-06-05T10:38:26;21.90;43.00
782;DHT22;374;52.568;13.402;2023-06-05T10:40:57;21.90;43.60
782;DHT22;374;52.568;13.402;2023-06-05T10:43:27;22.00;43.30
782;DHT22;374;52.568;13.402;2023-06-05T10:45:53;22.00;43.30
782;DHT22;374;52.568;13.402;2023-06-05T10:48:19;22.00;43.30
782;DHT22;374;52.568;13.402;2023-06-05T10:50:45;22.00;43.50
782;DHT22;374;52.568;13.402;2023-06-05T10:53:41;22.00;43.50
782;DHT22;374;52.568;13.402;2023-06-05T10:56:07;22.00;42.50
782;DHT22;374;52.568;13.402;2023-06-05T10:58:32;22.10;42.40
782;DHT22;374;52.568;13.402;2023-06-05T11:01:17;22.10;42.90
782;DHT22;374;52.568;13.402;2023-06-05T11:03:58;22.00;42.80
782;DHT22;374;52.568;13.402;2023-06-05T11:06:25;22.00;42.80
782;DHT22;374;52.568;13.402;2023-06-05T11:09:10;22.00;42.70
782;DHT22;374;52.568;13.402;2023-06-05T11:11:57;22.00;42.30
782;DHT22;374;52.568;13.402;2023-06-05T11:14:45;22.00;42.70
782;DHT22;374;52.568;13.402;2023-06-05T11:17:30;22.00;42.40
782;DHT22;374;52.568;13.402;2023-06-05T11:19:56;22.10;42.70
782;DHT22;374;52.568;13.402;2023-06-05T11:22:22;22.10;42.70
782;DHT22;374;52.568;13.402;2023-06-05T11:27:44;22.10;42.30
782;DHT22;374;52.568;13.402;2023-06-05T11:30:24;22.10;42.40
782;DHT22;374;52.568;13.402;2023-06-05T11:32:52;22.10;42.20
782;DHT22;374;52.568;13.402;2023-06-05T11:35:27;22.10;42.50
782;DHT22;374;52.568;13.402;2023-06-05T11:38:07;22.20;41.80
782;DHT22;374;52.568;13.402;2023-06-05T11:40:33;22.20;42.10
782;DHT22;374;52.568;13.402;2023-06-05T11:43:07;22.20;42.20
782;DHT22;374;52.568;13.402;2023-06-05T11:45:33;22.20;41.70
782;DHT22;374;52.568;13.402;2023-06-05T11:48:13;22.20;41.30
782;DHT22;374;52.568;13.402;2023-06-05T11:50:52;22.20;41.80
782;DHT22;374;52.568;13.402;2023-06-05T11:53:18;22.30;41.40
782;DHT22;374;52.568;13.402;2023-06-05T11:55:44;22.20;41.60
782;DHT22;374;52.568;13.402;2023-06-05T11:58:26;22.20;40.80
782;DHT22;374;52.568;13.402;2023-06-05T12:01:13;22.20;41.40
782;DHT22;374;52.568;13.402;2023-06-05T12:03:43;22.30;41.40
782;DHT22;374;52.568;13.402;2023-06-05T12:06:09;22.30;41.40
782;DHT22;374;52.568;13.402;2023-06-05T12:08:37;22.30;41.40
782;DHT22;374;52.568;13.402;2023-06-05T12:11:03;22.30;41.10
782;DHT22;374;52.568;13.402;2023-06-05T12:13:51;22.30;40.80
782;DHT22;374;52.568;13.402;2023-06-05T12:16:17;22.30;41.60
782;DHT22;374;52.568;13.402;2023-06-05T12:18:44;22.40;40.70
782;DHT22;374;52.568;13.402;2023-06-05T12:21:21;22.50;41.00
782;DHT22;374;52.568;13.402;2023-06-05T12:23:49;22.50;40.50
782;DHT22;374;52.568;13.402;2023-06-05T12:26:15;22.50;40.80
782;DHT22;374;52.568;13.402;2023-06-05T12:28:42;22.50;41.30
782;DHT22;374;52.568;13.402;2023-06-05T12:31:10;22.40;41.10
782;DHT22;374;52.568;13.402;2023-06-05T12:33:48;22.50;41.20
782;DHT22;374;52.568;13.402;2023-06-05T12:36:14;22.50;41.00
782;DHT22;374;52.568;13.402;2023-06-05T12:38:42;22.60;40.20
782;DHT22;374;52.568;13.402;2023-06-05T12:41:08;22.50;40.20
782;DHT22;374;52.568;13.402;2023-06-05T12:43:34;22.50;40.70
782;DHT22;374;52.568;13.402;2023-06-05T12:46:00;22.50;41.00
782;DHT22;374;52.568;13.402;2023-06-05T12:48:26;22.60;40.80
782;DHT22;374;52.568;13.402;2023-06-05T12:50:51;22.60;40.60
782;DHT22;374;52.568;13.402;2023-06-05T12:53:17;22.60;39.70
782;DHT22;374;52.568;13.402;2023-06-05T12:55:43;22.60;39.70
782;DHT22;374;52.568;13.402;2023-06-05T12:58:09;22.60;40.10
782;DHT22;374;52.568;13.402;2023-06-05T13:00:35;22.70;40.00
782;DHT22;374;52.568;13.402;2023-06-05T13:03:01;22.60;40.10
782;DHT22;374;52.568;13.402;2023-06-05T13:05:26;22.60;40.20
782;DHT22;374;52.568;13.402;2023-06-05T13:07:52;22.60;40.30
782;DHT22;374;52.568;13.402;2023-06-05T13:10:19;22.70;40.50
782;DHT22;374;52.568;13.402;2023-06-05T13:12:44;22.70;40.80
782;DHT22;374;52.568;13.402;2023-06-05T13:15:10;22.70;40.90
782;DHT22;374;52.568;13.402;2023-06-05T13:17:36;22.70;41.10
782;DHT22;374;52.568;13.402;2023-06-05T13:20:04;22.70;40.90
782;DHT22;374;52.568;13.402;2023-06-05T13:22:32;22.80;41.10
782;DHT22;374;52.568;13.402;2023-06-05T13:24:57;22.80;40.80
782;DHT22;374;52.568;13.402;2023-06-05T13:27:23;22.80;40.80
782;DHT22;374;52.568;13.402;2023-06-05T13:29:51;22.80;40.60
782;DHT22;374;52.568;13.402;2023-06-05T13:32:17;22.80;39.80
782;DHT22;374;52.568;13.402;2023-06-05T13:34:42;22.80;40.50
782;DHT22;374;52.568;13.402;2023-06-05T13:37:08;22.80;40.50
782;DHT22;374;52.568;13.402;2023-06-05T13:39:33;22.80;40.00
782;DHT22;374;52.568;13.402;2023-06-05T13:41:59;22.90;39.70
782;DHT22;374;52.568;13.402;2023-06-05T13:44:26;22.90;39.80
782;DHT22;374;52.568;13.402;2023-06-05T13:46:52;22.90;39.80
782;DHT22;374;52.568;13.402;2023-06-05T13:49:17;22.90;40.00
782;DHT22;374;52.568;13.402;2023-06-05T13:51:42;22.80;40.50
782;DHT22;374;52.568;13.402;2023-06-05T13:54:08;22.80;40.60
782;DHT22;374;52.568;13.402;2023-06-05T13:56:33;22.90;40.60
782;DHT22;374;52.568;13.402;2023-06-05T13:58:59;22.90;40.60
782;DHT22;374;52.568;13.402;2023-06-05T14:01:24;22.90;40.50
782;DHT22;374;52.568;13.402;2023-06-05T14:03:50;22.90;40.90
782;DHT22;374;52.568;13.402;2023-06-05T14:06:17;22.90;41.00
782;DHT22;374;52.568;13.402;2023-06-05T14:08:43;22.90;40.70
782;DHT22;374;52.568;13.402;2023-06-05T14:11:09;23.00;40.70
782;DHT22;374;52.568;13.402;2023-06-05T14:13:35;23.00;40.60
782;DHT22;374;52.568;13.402;2023-06-05T14:16:01;23.00;40.20
782;DHT22;374;52.568;13.402;2023-06-05T14:18:28;23.00;39.60
782;DHT22;374;52.568;13.402;2023-06-05T14:20:54;23.10;40.30
782;DHT22;374;52.568;13.402;2023-06-05T14:23:20;23.00;40.50
782;DHT22;374;52.568;13.402;2023-06-05T14:25:48;23.10;40.40
782;DHT22;374;52.568;13.402;2023-06-05T14:28:14;23.10;38.80
782;DHT22;374;52.568;13.402;2023-06-05T14:30:40;23.10;39.10
782;DHT22;374;52.568;13.402;2023-06-05T14:33:05;23.10;39.20
782;DHT22;374;52.568;13.402;2023-06-05T14:35:31;23.10;39.70
782;DHT22;374;52.568;13.402;2023-06-05T14:37:56;23.10;39.90
782;DHT22;374;52.568;13.402;2023-06-05T14:40:22;23.10;39.60
782;DHT22;374;52.568;13.402;2023-06-05T14:42:49;23.10;39.40
782;DHT22;374;52.568;13.402;2023-06-05T14:45:15;23.10;39.80
782;DHT22;374;52.568;13.402;2023-06-05T14:47:40;23.10;39.60
782;DHT22;374;52.568;13.402;2023-06-05T14:50:06;23.10;40.20
782;DHT22;374;52.568;13.402;2023-06-05T14:52:32;23.20;39.20
782;DHT22;374;52.568;13.402;2023-06-05T14:54:58;23.20;38.70
782;DHT22;374;52.568;13.402;2023-06-05T14:57:23;23.20;39.30
782;DHT22;374;52.568;13.402;2023-06-05T14:59:49;23.20;39.30
782;DHT22;374;52.568;13.402;2023-06-05T15:02:14;23.20;39.40
782;DHT22;374;52.568;13.402;2023-06-05T15:04:40;23.20;39.40
782;DHT22;374;52.568;13.402;2023-06-05T15:07:05;23.20;39.10
782;DHT22;374;52.568;13.402;2023-06-05T15:09:31;23.20;39.00
782;DHT22;374;52.568;13.402;2023-06-05T15:11:57;23.30;38.50
782;DHT22;374;52.568;13.402;2023-06-05T15:14:22;23.20;38.50
782;DHT22;374;52.568;13.402;2023-06-05T15:16:51;23.20;39.00
782;DHT22;374;52.568;13.402;2023-06-05T15:19:16;23.20;39.10
782;DHT22;374;52.568;13.402;2023-06-05T15:21:42;23.20;39.80
782;DHT22;374;52.568;13.402;2023-06-05T15:24:07;23.30;39.20
782;DHT22;374;52.568;13.402;2023-06-05T15:26:33;23.30;38.90
782;DHT22;374;52.568;13.402;2023-06-05T15:28:58;23.40;39.50
782;DHT22;374;52.568;13.402;2023-06-05T15:31:24;23.40;39.60
782;DHT22;374;52.568;13.402;2023-06-05T15:33:50;23.40;39.60
782;DHT22;374;52.568;13.402;2023-06-05T15:36:15;23.30;39.20
782;DHT22;374;52.568;13.402;2023-06-05T15:38:41;23.40;39.10
782;DHT22;374;52.568;13.402;2023-06-05T15:41:06;23.30;39.50
782;DHT22;374;52.568;13.402;2023-06-05T15:43:32;23.40;39.50
782;DHT22;374;52.568;13.402;2023-06-05T15:45:57;23.40;39.40
782;DHT22;374;52.568;13.402;2023-06-05T15:48:22;23.40;39.80
782;DHT22;374;52.568;13.402;2023-06-05T15:50:50;23.40;39.50
782;DHT22;374;52.568;13.402;2023-06-05T15:53:16;23.40;39.70
782;DHT22;374;52.568;13.402;2023-06-05T15:55:42;23.40;39.70
782;DHT22;374;52.568;13.402;2023-06-05T15:58:09;23.40;39.60
782;DHT22;374;52.568;13.402;2023-06-05T16:00:35;23.40;39.70
782;DHT22;374;52.568;13.402;2023-06-05T16:03:01;23.50;39.90
782;DHT22;374;52.568;13.402;2023-06-05T16:05:27;23.50;39.90
782;DHT22;374;52.568;13.402;2023-06-05T16:07:52;23.50;39.80
782;DHT22;374;52.568;13.402;2023-06-05T16:10:19;23.40;39.80
782;DHT22;374;52.568;13.402;2023-06-05T16:12:44;23.50;40.20
782;DHT22;374;52.568;13.402;2023-06-05T16:15:10;23.50;40.00
782;DHT22;374;52.568;13.402;2023-06-05T16:17:35;23.50;40.20
782;DHT22;374;52.568;13.402;2023-06-05T16:20:04;23.50;40.00
782;DHT22;374;52.568;13.402;2023-06-05T16:22:30;23.50;39.90
782;DHT22;374;52.568;13.402;2023-06-05T16:24:56;23.50;39.70
782;DHT22;374;52.568;13.402;2023-06-05T16:27:22;23.50;40.20